Time;durP1;ratioP1;P1;durP2;ratioP2;P2;SDS_P1;SDS_P2;PMS_P1;PMS_P2;Temp;Humidity;BMP_temperature;BMP_pressure;BME280_temperature;BME280_humidity;BME280_pressure;Samples;Min_cycle;Max_cycle;Signal;HPM_P1;HPM_P2
2022/03/14 00:00:47;;;;;;;22.67;4.63;;;8.80;99.90;;;;;;5027948;28;20041;-74
2022/03/14 00:03:13;;;;;;;20.40;4.07;;;8.90;99.90;;;;;;5030634;28;20033;-74
2022/03/14 00:05:39;;;;;;;17.63;4.00;;;8.90;99.90;;;;;;5028809;28;20025;-74
2022/03/14 00:08:05;;;;;;;17.73;3.95;;;8.80;99.90;;;;;;5027967;28;20035;-74
2022/03/14 00:10:34;;;;;;;19.60;4.10;;;8.90;99.90;;;;;;5027898;28;20037;-74
2022/03/14 00:13:01;;;;;;;19.35;4.32;;;8.90;99.90;;;;;;5027971;28;20311;-74
2022/03/14 00:15:32;;;;;;;21.30;4.25;;;8.90;99.90;;;;;;5030226;28;20081;-75
2022/03/14 00:18:00;;;;;;;21.80;4.50;;;8.90;99.90;;;;;;5031328;28;20032;-74
2022/03/14 00:20:26;;;;;;;22.20;3.90;;;9.00;99.90;;;;;;5028026;28;20037;-74
2022/03/14 00:22:52;;;;;;;20.92;3.90;;;9.00;99.90;;;;;;5028353;28;20025;-75
2022/03/14 00:25:18;;;;;;;26.13;4.22;;;9.00;99.90;;;;;;5027970;28;20037;-74
2022/03/14 00:27:44;;;;;;;25.08;4.50;;;9.00;99.90;;;;;;5028767;28;20029;-74
2022/03/14 00:30:11;;;;;;;28.48;4.32;;;9.10;99.90;;;;;;5030866;28;20033;-74
2022/03/14 00:32:41;;;;;;;25.05;4.38;;;9.20;99.90;;;;;;5027966;28;20028;-75
2022/03/14 00:35:08;;;;;;;19.92;3.72;;;9.20;99.90;;;;;;5027002;28;20568;-75
2022/03/14 00:37:35;;;;;;;21.30;4.13;;;9.20;99.90;;;;;;5027527;28;20086;-74
2022/03/14 00:40:03;;;;;;;19.63;4.00;;;9.30;99.90;;;;;;5029654;28;20083;-74
2022/03/14 00:42:29;;;;;;;23.75;4.15;;;9.30;99.90;;;;;;5028647;28;20037;-74
2022/03/14 00:44:54;;;;;;;24.70;4.70;;;9.30;99.90;;;;;;5029966;28;20083;-74
2022/03/14 00:47:21;;;;;;;25.90;4.40;;;9.40;99.90;;;;;;5028843;28;20029;-74
2022/03/14 00:49:48;;;;;;;23.85;3.72;;;9.40;99.90;;;;;;5029364;28;20021;-74
2022/03/14 00:52:16;;;;;;;23.15;4.43;;;9.30;99.90;;;;;;5027345;28;20052;-74
2022/03/14 00:54:42;;;;;;;26.10;4.18;;;9.30;99.90;;;;;;5027150;28;20045;-75
2022/03/14 00:57:08;;;;;;;25.30;4.30;;;9.30;99.90;;;;;;5030313;28;20121;-74
2022/03/14 00:59:34;;;;;;;21.48;3.92;;;9.30;99.90;;;;;;5028164;28;20111;-74
2022/03/14 01:02:00;;;;;;;23.75;4.57;;;9.30;99.90;;;;;;5029294;28;20065;-74
2022/03/14 01:04:26;;;;;;;28.67;4.55;;;9.30;99.90;;;;;;5030038;28;20032;-74
2022/03/14 01:06:51;;;;;;;18.58;3.92;;;9.20;99.90;;;;;;5026444;28;20393;-74
2022/03/14 01:09:17;;;;;;;17.45;4.30;;;9.20;99.90;;;;;;5029490;28;20527;-74
2022/03/14 01:11:44;;;;;;;22.65;4.10;;;9.20;99.90;;;;;;5027367;28;20102;-74
2022/03/14 01:14:11;;;;;;;19.83;3.70;;;9.20;99.90;;;;;;5026734;28;20041;-74
2022/03/14 01:16:38;;;;;;;22.05;4.15;;;9.20;99.90;;;;;;5027275;28;20033;-74
2022/03/14 01:19:05;;;;;;;26.38;4.63;;;9.30;99.90;;;;;;5026704;28;20044;-74
2022/03/14 01:21:31;;;;;;;20.15;4.00;;;9.30;99.90;;;;;;5028266;28;23697;-74
2022/03/14 01:23:58;;;;;;;26.27;4.25;;;9.30;99.90;;;;;;5030121;28;20685;-74
2022/03/14 01:26:24;;;;;;;20.90;3.88;;;9.30;99.90;;;;;;5027001;28;20025;-75
2022/03/14 01:28:50;;;;;;;21.25;4.35;;;9.30;99.90;;;;;;5025968;28;20028;-75
2022/03/14 01:31:17;;;;;;;20.63;3.72;;;9.30;99.90;;;;;;5027786;28;20068;-75
2022/03/14 01:33:43;;;;;;;19.65;3.95;;;9.30;99.90;;;;;;5027496;28;20044;-75
2022/03/14 01:36:09;;;;;;;19.48;3.95;;;9.30;99.90;;;;;;5029430;28;20029;-75
2022/03/14 01:38:35;;;;;;;18.58;4.38;;;9.30;99.90;;;;;;5028100;28;20033;-75
2022/03/14 01:41:00;;;;;;;23.10;3.95;;;9.30;99.90;;;;;;5028327;28;20112;-74
2022/03/14 01:43:26;;;;;;;18.58;3.70;;;9.30;99.90;;;;;;5026018;28;20057;-74
2022/03/14 01:45:56;;;;;;;17.13;3.80;;;9.30;99.90;;;;;;5025967;28;20026;-75
2022/03/14 01:48:24;;;;;;;20.40;3.63;;;9.30;99.90;;;;;;5028167;28;20140;-75
2022/03/14 01:50:50;;;;;;;25.48;3.78;;;9.30;99.90;;;;;;5026903;28;20029;-75
2022/03/14 01:53:18;;;;;;;25.77;3.72;;;9.30;99.90;;;;;;5026129;28;20032;-75
2022/03/14 01:55:44;;;;;;;24.83;3.90;;;9.30;99.90;;;;;;5027229;28;20068;-75
2022/03/14 01:58:09;;;;;;;20.85;4.10;;;9.30;99.90;;;;;;5027339;28;20104;-74
2022/03/14 02:00:36;;;;;;;20.13;4.50;;;9.30;99.90;;;;;;5026002;28;20512;-75
2022/03/14 02:03:02;;;;;;;18.83;4.05;;;9.30;99.90;;;;;;5028512;28;20013;-75
2022/03/14 02:05:28;;;;;;;22.83;4.35;;;9.30;99.90;;;;;;5029200;28;20523;-74
2022/03/14 02:07:57;;;;;;;20.88;4.30;;;9.20;99.90;;;;;;5025998;28;20643;-75
2022/03/14 02:10:22;;;;;;;20.02;4.32;;;9.20;99.90;;;;;;5025740;28;20511;-75
2022/03/14 02:12:48;;;;;;;22.25;3.95;;;9.20;99.90;;;;;;5025725;28;20021;-74
2022/03/14 02:15:14;;;;;;;17.05;4.50;;;9.20;99.90;;;;;;5025295;28;20121;-74
2022/03/14 02:17:40;;;;;;;20.88;3.83;;;9.30;99.90;;;;;;5028170;28;20120;-75
2022/03/14 02:20:07;;;;;;;22.67;4.20;;;9.20;99.90;;;;;;5025453;28;20040;-74
2022/03/14 02:22:33;;;;;;;19.90;3.97;;;9.20;99.90;;;;;;5025199;28;20018;-74
2022/03/14 02:24:59;;;;;;;22.15;3.88;;;9.20;99.90;;;;;;5025678;28;20040;-75
2022/03/14 02:27:24;;;;;;;18.77;4.25;;;9.30;99.90;;;;;;5027101;28;20029;-74
2022/03/14 02:29:51;;;;;;;20.55;4.00;;;9.30;99.90;;;;;;5029447;28;20040;-75
2022/03/14 02:32:17;;;;;;;20.17;3.72;;;9.30;99.90;;;;;;5027407;28;20071;-74
2022/03/14 02:34:43;;;;;;;14.27;3.55;;;9.20;99.90;;;;;;5027115;28;20120;-74
2022/03/14 02:37:10;;;;;;;19.35;4.38;;;9.20;99.90;;;;;;5025179;28;20113;-75
2022/03/14 02:39:37;;;;;;;14.02;4.10;;;9.20;99.90;;;;;;5026152;28;20581;-75
2022/03/14 02:42:04;;;;;;;16.92;4.60;;;9.20;99.90;;;;;;5028716;28;20033;-74
2022/03/14 02:44:31;;;;;;;19.27;3.83;;;9.10;99.90;;;;;;5026199;28;20497;-75
2022/03/14 02:46:57;;;;;;;25.95;5.18;;;9.10;99.90;;;;;;5026924;28;20022;-75
2022/03/14 02:49:23;;;;;;;22.30;4.55;;;9.10;99.90;;;;;;5026591;28;20021;-75
2022/03/14 02:51:50;;;;;;;22.85;4.88;;;9.00;99.90;;;;;;5025423;28;20040;-75
2022/03/14 02:54:16;;;;;;;20.00;4.38;;;9.00;99.90;;;;;;5026494;28;20041;-75
2022/03/14 02:56:41;;;;;;;20.05;4.60;;;9.00;99.90;;;;;;5027716;28;20086;-74
2022/03/14 02:59:08;;;;;;;19.98;4.53;;;8.90;99.90;;;;;;5027008;28;20033;-75
2022/03/14 03:01:35;;;;;;;19.17;4.47;;;8.90;99.90;;;;;;5024936;28;20041;-75
2022/03/14 03:04:00;;;;;;;23.50;4.05;;;8.80;99.90;;;;;;5027550;28;20029;-74
2022/03/14 03:06:27;;;;;;;16.88;4.18;;;8.80;99.90;;;;;;5025911;28;20025;-75
2022/03/14 03:08:54;;;;;;;16.23;4.55;;;8.80;99.90;;;;;;5028431;28;20872;-75
2022/03/14 03:11:21;;;;;;;13.57;3.55;;;8.80;99.90;;;;;;5025504;28;20029;-75
2022/03/14 03:13:47;;;;;;;20.33;4.03;;;8.70;99.90;;;;;;5026940;28;20026;-75
2022/03/14 03:16:16;;;;;;;25.70;4.75;;;8.70;99.90;;;;;;5027449;28;20045;-75
2022/03/14 03:18:43;;;;;;;21.50;4.75;;;8.70;99.90;;;;;;5025460;28;20030;-75
2022/03/14 03:21:09;;;;;;;22.75;4.28;;;8.70;99.90;;;;;;5028049;28;20076;-74
2022/03/14 03:23:35;;;;;;;23.35;4.50;;;8.80;99.90;;;;;;5026061;28;20574;-75
2022/03/14 03:26:02;;;;;;;22.38;4.50;;;8.80;99.90;;;;;;5026632;28;20025;-74
2022/03/14 03:28:35;;;;;;;23.80;4.25;;;8.80;99.90;;;;;;5027036;28;20038;-74
2022/03/14 03:31:05;;;;;;;20.65;4.07;;;8.70;99.90;;;;;;5030868;28;20021;-75
2022/03/14 03:33:31;;;;;;;22.15;4.80;;;8.70;99.90;;;;;;5030036;28;20048;-74
2022/03/14 03:35:57;;;;;;;25.55;4.10;;;8.70;99.90;;;;;;5032227;28;20501;-74
2022/03/14 03:38:22;;;;;;;27.45;4.40;;;8.70;99.90;;;;;;5028454;28;20065;-74
2022/03/14 03:40:48;;;;;;;25.98;4.60;;;8.70;99.90;;;;;;5030908;28;20029;-74
2022/03/14 03:43:14;;;;;;;16.90;4.00;;;8.60;99.90;;;;;;5029856;28;20270;-75
2022/03/14 03:45:40;;;;;;;20.20;4.50;;;8.60;99.90;;;;;;5028765;28;20032;-75
2022/03/14 03:48:06;;;;;;;25.88;5.10;;;8.60;99.90;;;;;;5032037;28;20113;-75
2022/03/14 03:50:32;;;;;;;20.77;4.50;;;8.50;99.90;;;;;;5032023;28;20104;-74
2022/03/14 03:52:57;;;;;;;21.70;4.25;;;8.50;99.90;;;;;;5035045;28;20605;-74
2022/03/14 03:55:24;;;;;;;19.23;4.20;;;8.50;99.90;;;;;;5029716;28;20052;-75
2022/03/14 03:57:50;;;;;;;18.88;4.50;;;8.50;99.90;;;;;;5029224;28;20459;-75
2022/03/14 04:00:16;;;;;;;19.95;4.15;;;8.40;99.90;;;;;;5031577;28;20040;-75
2022/03/14 04:02:44;;;;;;;18.85;4.65;;;8.50;99.90;;;;;;5031429;28;20496;-75
2022/03/14 04:05:11;;;;;;;17.25;3.83;;;8.40;99.90;;;;;;5028353;28;20036;-75
2022/03/14 04:07:39;;;;;;;18.63;4.22;;;8.50;99.90;;;;;;5033439;28;20028;-75
2022/03/14 04:10:06;;;;;;;20.48;3.72;;;8.50;99.90;;;;;;5029133;28;20041;-75
2022/03/14 04:12:32;;;;;;;18.02;3.78;;;8.50;99.90;;;;;;5029563;28;20014;-74
2022/03/14 04:14:58;;;;;;;18.50;4.13;;;8.50;99.90;;;;;;5030003;28;20091;-75
2022/03/14 04:17:25;;;;;;;21.08;4.10;;;8.60;99.90;;;;;;5027247;28;20037;-75
2022/03/14 04:19:52;;;;;;;19.77;4.60;;;8.60;99.90;;;;;;5027814;28;20366;-74
2022/03/14 04:22:21;;;;;;;20.73;4.35;;;8.60;99.90;;;;;;5027554;28;20083;-75
2022/03/14 04:24:47;;;;;;;20.42;4.32;;;8.60;99.90;;;;;;5027247;28;20053;-75
2022/03/14 04:27:13;;;;;;;16.17;4.43;;;8.60;99.90;;;;;;5030150;28;20033;-75
2022/03/14 04:29:39;;;;;;;22.70;4.70;;;8.70;99.90;;;;;;5040578;28;20076;-74
2022/03/14 04:32:05;;;;;;;22.35;4.88;;;8.70;99.90;;;;;;5027569;28;20485;-75
2022/03/14 04:34:32;;;;;;;20.73;5.18;;;8.70;99.90;;;;;;5027490;28;20072;-74
2022/03/14 04:36:58;;;;;;;20.02;5.32;;;8.70;99.90;;;;;;5027303;28;20037;-75
2022/03/14 04:39:24;;;;;;;22.90;5.93;;;8.70;99.90;;;;;;5030236;28;20029;-74
2022/03/14 04:41:49;;;;;;;26.00;4.90;;;8.70;99.90;;;;;;5027573;28;20500;-75
2022/03/14 04:44:16;;;;;;;22.45;4.95;;;8.70;99.90;;;;;;5029602;28;20436;-73
2022/03/14 04:46:42;;;;;;;23.27;5.22;;;8.60;99.90;;;;;;5027193;28;20032;-74
2022/03/14 04:49:08;;;;;;;19.40;5.65;;;8.50;99.90;;;;;;5027282;28;20025;-74
2022/03/14 04:51:36;;;;;;;21.20;5.40;;;8.50;99.90;;;;;;5027556;28;20022;-74
2022/03/14 04:54:02;;;;;;;16.88;4.13;;;8.50;99.90;;;;;;5030035;28;20057;-74
2022/03/14 04:56:28;;;;;;;22.35;5.10;;;8.50;99.90;;;;;;5026532;28;20476;-74
2022/03/14 04:58:53;;;;;;;22.35;4.78;;;8.40;99.90;;;;;;5026316;28;20076;-74
2022/03/14 05:01:23;;;;;;;28.88;5.53;;;8.40;99.90;;;;;;5026896;28;20060;-74
2022/03/14 05:03:52;;;;;;;27.50;5.35;;;8.40;99.90;;;;;;5026970;28;20037;-74
2022/03/14 05:06:18;;;;;;;20.05;5.28;;;8.40;99.90;;;;;;5029619;28;20035;-74
2022/03/14 05:08:46;;;;;;;19.17;5.20;;;8.40;99.90;;;;;;5028391;28;20125;-74
2022/03/14 05:11:12;;;;;;;21.98;6.18;;;8.30;99.90;;;;;;5026886;28;20076;-74
2022/03/14 05:13:38;;;;;;;26.58;6.68;;;8.40;99.90;;;;;;5027674;28;20584;-74
2022/03/14 05:16:04;;;;;;;23.30;6.38;;;8.40;99.90;;;;;;5033297;28;20505;-73
2022/03/14 05:18:30;;;;;;;22.30;5.82;;;8.40;99.90;;;;;;5027487;28;20074;-75
2022/03/14 05:20:56;;;;;;;26.00;6.32;;;8.30;99.90;;;;;;5029612;28;20029;-75
2022/03/14 05:23:22;;;;;;;27.30;6.00;;;8.30;99.90;;;;;;5026338;28;20061;-74
2022/03/14 05:25:48;;;;;;;23.25;5.90;;;8.30;99.90;;;;;;5024317;28;20032;-72
2022/03/14 05:28:14;;;;;;;23.02;5.90;;;8.30;99.90;;;;;;5028470;28;20029;-73
2022/03/14 05:30:40;;;;;;;22.73;5.15;;;8.30;99.90;;;;;;5026239;28;20021;-73
2022/03/14 05:33:06;;;;;;;23.55;5.53;;;8.30;99.90;;;;;;5030698;28;20365;-73
2022/03/14 05:35:32;;;;;;;21.13;5.43;;;8.30;99.90;;;;;;5028555;28;20042;-73
2022/03/14 05:37:57;;;;;;;23.83;5.43;;;8.30;99.90;;;;;;5026640;28;20036;-73
2022/03/14 05:40:23;;;;;;;23.60;5.15;;;8.30;99.90;;;;;;5025992;28;20037;-73
2022/03/14 05:42:50;;;;;;;19.23;5.03;;;8.30;99.90;;;;;;5026494;28;20018;-73
2022/03/14 05:45:17;;;;;;;24.98;5.70;;;8.20;99.90;;;;;;5028227;28;20102;-75
2022/03/14 05:47:44;;;;;;;22.45;5.28;;;8.30;99.90;;;;;;5028405;28;20025;-75
2022/03/14 05:50:10;;;;;;;19.27;4.95;;;8.30;99.90;;;;;;5026166;28;20033;-75
2022/03/14 05:52:36;;;;;;;25.35;5.47;;;8.30;99.90;;;;;;5027546;28;20018;-75
2022/03/14 05:55:02;;;;;;;25.20;5.30;;;8.20;99.90;;;;;;5025981;28;20040;-75
2022/03/14 05:57:28;;;;;;;19.65;4.95;;;8.20;99.90;;;;;;5030515;28;20064;-75
2022/03/14 05:59:54;;;;;;;22.60;4.70;;;8.30;99.90;;;;;;5030093;28;20057;-76
2022/03/14 06:02:21;;;;;;;15.65;4.20;;;8.30;99.90;;;;;;5025819;28;20046;-76
2022/03/14 06:04:51;;;;;;;16.38;4.10;;;8.30;99.90;;;;;;5026036;28;20028;-76
2022/03/14 06:07:21;;;;;;;23.05;4.55;;;8.30;99.90;;;;;;5028205;28;20877;-75
2022/03/14 06:09:50;;;;;;;21.80;5.03;;;8.30;99.90;;;;;;5027478;28;20041;-75
2022/03/14 06:12:25;;;;;;;20.98;5.07;;;8.30;99.90;;;;;;5027435;28;20049;-75
2022/03/14 06:14:56;;;;;;;20.48;4.20;;;8.30;99.90;;;;;;5057822;28;20049;-76
2022/03/14 06:17:22;;;;;;;11.25;3.95;;;8.30;99.90;;;;;;5026024;28;20026;-75
2022/03/14 06:19:48;;;;;;;22.25;4.82;;;8.30;99.90;;;;;;5026684;28;20044;-75
2022/03/14 06:22:18;;;;;;;21.42;4.20;;;8.30;99.90;;;;;;5033935;28;20492;-74
2022/03/14 06:24:46;;;;;;;19.05;4.53;;;8.30;99.90;;;;;;5024875;28;20033;-75
2022/03/14 06:27:15;;;;;;;20.90;4.30;;;8.30;99.90;;;;;;5028798;28;20032;-75
2022/03/14 06:29:42;;;;;;;19.55;4.40;;;8.30;99.90;;;;;;5025758;28;20460;-76
2022/03/14 06:32:09;;;;;;;18.70;4.28;;;8.30;99.90;;;;;;5025780;28;20078;-75
2022/03/14 06:34:35;;;;;;;18.13;4.35;;;8.30;99.90;;;;;;5027296;28;20033;-75
2022/03/14 06:37:00;;;;;;;20.75;4.80;;;8.40;99.90;;;;;;5027675;28;20033;-74
2022/03/14 06:39:26;;;;;;;19.90;4.60;;;8.40;99.90;;;;;;5028140;28;20072;-74
2022/03/14 06:41:52;;;;;;;16.85;4.32;;;8.40;99.90;;;;;;5027339;28;20034;-74
2022/03/14 06:44:19;;;;;;;15.10;3.97;;;8.40;99.90;;;;;;5025142;28;20028;-74
2022/03/14 06:46:45;;;;;;;19.50;4.72;;;8.40;99.90;;;;;;5023793;28;20026;-75
2022/03/14 06:49:14;;;;;;;12.98;4.35;;;8.40;99.90;;;;;;5024291;28;20048;-75
2022/03/14 06:51:41;;;;;;;15.63;4.40;;;8.40;99.90;;;;;;5024758;28;20029;-75
2022/03/14 06:54:09;;;;;;;17.63;3.95;;;8.40;99.90;;;;;;5021985;28;20534;-74
2022/03/14 06:56:37;;;;;;;17.63;3.97;;;8.40;99.90;;;;;;5020562;28;20049;-74
2022/03/14 06:59:03;;;;;;;17.77;4.38;;;8.40;99.90;;;;;;5024381;28;20041;-74
2022/03/14 07:01:30;;;;;;;16.05;3.80;;;8.40;99.90;;;;;;5013682;28;20050;-74
2022/03/14 07:03:59;;;;;;;18.60;4.45;;;8.40;99.90;;;;;;5014019;28;20030;-74
2022/03/14 07:06:24;;;;;;;11.23;3.50;;;8.50;99.90;;;;;;5017261;28;20080;-74
2022/03/14 07:08:50;;;;;;;12.80;3.80;;;8.50;99.90;;;;;;5019017;28;20393;-74
2022/03/14 07:11:16;;;;;;;15.25;3.40;;;8.60;99.90;;;;;;5014199;28;20022;-74
2022/03/14 07:13:42;;;;;;;14.82;3.88;;;8.60;99.90;;;;;;5016060;28;20037;-74
2022/03/14 07:16:07;;;;;;;11.88;3.50;;;8.60;99.90;;;;;;5031703;28;20041;-74
2022/03/14 07:18:34;;;;;;;14.25;3.55;;;8.70;99.90;;;;;;5021750;28;20022;-74
2022/03/14 07:21:00;;;;;;;15.20;3.45;;;8.70;99.90;;;;;;5017157;28;20082;-74
2022/03/14 07:23:26;;;;;;;14.40;3.50;;;8.80;99.90;;;;;;5015604;28;20026;-74
2022/03/14 07:25:52;;;;;;;12.63;3.80;;;8.90;99.90;;;;;;5030662;28;20042;-74
2022/03/14 07:28:21;;;;;;;16.10;4.18;;;8.90;99.90;;;;;;5016951;28;20057;-74
2022/03/14 07:30:47;;;;;;;13.27;3.60;;;9.10;99.40;;;;;;5027348;28;20468;-75
2022/03/14 07:33:15;;;;;;;19.38;4.60;;;9.20;98.40;;;;;;5024544;28;20036;-75
2022/03/14 07:35:41;;;;;;;13.63;3.90;;;9.30;98.20;;;;;;5016362;28;20065;-75
2022/03/14 07:38:07;;;;;;;15.00;3.70;;;9.40;97.60;;;;;;5025225;28;20056;-75
2022/03/14 07:40:33;;;;;;;15.07;4.25;;;9.50;97.40;;;;;;5017037;28;20067;-75
2022/03/14 07:42:59;;;;;;;15.77;3.78;;;9.60;97.50;;;;;;5027057;28;20472;-75
2022/03/14 07:45:26;;;;;;;13.98;3.78;;;9.70;96.70;;;;;;5022499;28;20493;-75
2022/03/14 07:47:54;;;;;;;11.90;3.50;;;9.90;95.70;;;;;;5017034;28;20422;-75
2022/03/14 07:50:20;;;;;;;12.55;3.83;;;10.10;94.70;;;;;;5013671;28;20065;-75
2022/03/14 07:52:47;;;;;;;13.80;3.63;;;10.40;93.50;;;;;;5014835;28;20010;-75
2022/03/14 07:55:14;;;;;;;14.32;3.72;;;10.70;92.00;;;;;;5030573;28;20041;-75
2022/03/14 07:57:40;;;;;;;15.32;3.97;;;11.00;90.80;;;;;;5027465;28;20021;-75
2022/03/14 08:00:12;;;;;;;12.52;3.17;;;11.30;90.30;;;;;;5024636;28;20497;-75
2022/03/14 08:02:38;;;;;;;14.82;3.95;;;11.50;87.70;;;;;;5015946;28;20029;-75
2022/03/14 08:05:06;;;;;;;16.35;3.83;;;12.60;81.10;;;;;;5012491;28;20030;-75
2022/03/14 08:07:32;;;;;;;11.73;3.53;;;14.20;70.90;;;;;;5016587;28;20030;-76
2022/03/14 08:09:58;;;;;;;14.07;3.80;;;16.40;60.00;;;;;;5016331;28;20033;-76
2022/03/14 08:12:24;;;;;;;12.52;3.67;;;18.30;52.10;;;;;;5016352;28;20030;-76
2022/03/14 08:14:50;;;;;;;11.75;3.45;;;20.10;45.10;;;;;;5016662;28;20037;-75
2022/03/14 08:17:20;;;;;;;11.50;3.83;;;21.40;41.30;;;;;;5011688;28;20026;-76
2022/03/14 08:19:46;;;;;;;8.50;3.03;;;22.60;38.00;;;;;;5014286;28;20037;-76
2022/03/14 08:22:12;;;;;;;9.50;2.83;;;23.60;35.90;;;;;;5026352;28;20017;-77
2022/03/14 08:24:38;;;;;;;10.68;3.28;;;24.60;33.00;;;;;;5021550;28;20037;-76
2022/03/14 08:27:05;;;;;;;13.35;3.25;;;25.00;31.60;;;;;;5016326;28;20079;-76
2022/03/14 08:29:32;;;;;;;9.77;3.03;;;25.50;31.20;;;;;;5014377;28;20087;-76
2022/03/14 08:31:58;;;;;;;11.07;3.20;;;26.00;30.00;;;;;;5013423;28;20018;-76
2022/03/14 08:34:25;;;;;;;9.85;2.80;;;26.40;29.50;;;;;;5016144;28;20050;-75
2022/03/14 08:36:51;;;;;;;10.48;3.03;;;26.90;28.90;;;;;;5016206;28;20026;-73
2022/03/14 08:39:17;;;;;;;10.60;2.70;;;27.30;28.60;;;;;;5015918;28;20045;-76
2022/03/14 08:41:43;;;;;;;10.98;2.85;;;27.90;27.80;;;;;;5016069;28;20029;-76
2022/03/14 08:44:09;;;;;;;9.50;2.72;;;28.30;26.50;;;;;;5011948;28;20030;-73
2022/03/14 08:46:35;;;;;;;9.82;2.78;;;28.60;26.50;;;;;;5015858;28;20528;-73
2022/03/14 08:49:02;;;;;;;9.85;2.60;;;28.70;26.30;;;;;;5015689;28;20037;-73
2022/03/14 08:51:28;;;;;;;10.32;2.70;;;29.10;25.70;;;;;;5015776;28;20041;-73
2022/03/14 08:53:54;;;;;;;9.10;2.67;;;29.00;25.30;;;;;;5014767;28;20026;-73
2022/03/14 08:56:20;;;;;;;7.53;2.63;;;29.20;25.30;;;;;;5027583;28;20030;-73
2022/03/14 08:58:46;;;;;;;10.45;2.45;;;29.60;24.90;;;;;;5026856;28;20030;-73
2022/03/14 09:01:12;;;;;;;8.93;2.50;;;29.90;24.30;;;;;;5025025;28;20056;-73
2022/03/14 09:03:38;;;;;;;8.05;2.28;;;30.20;24.20;;;;;;5026052;28;20061;-73
2022/03/14 09:06:05;;;;;;;9.80;2.58;;;30.50;23.60;;;;;;5024248;28;20022;-73
2022/03/14 09:08:31;;;;;;;10.45;2.35;;;30.70;23.50;;;;;;5015989;28;20038;-72
2022/03/14 09:11:01;;;;;;;8.55;2.55;;;31.20;23.20;;;;;;5059239;28;20107;-73
2022/03/14 09:13:28;;;;;;;6.13;2.25;;;31.60;22.60;;;;;;5015214;28;20109;-73
2022/03/14 09:15:53;;;;;;;8.27;2.50;;;31.80;22.40;;;;;;5015124;28;20072;-73
2022/03/14 09:18:20;;;;;;;8.00;2.30;;;32.10;22.20;;;;;;5019487;28;20029;-74
2022/03/14 09:20:47;;;;;;;7.05;2.15;;;32.30;22.50;;;;;;5026253;28;20420;-73
2022/03/14 09:23:13;;;;;;;7.60;2.20;;;32.80;21.40;;;;;;5026061;28;20039;-73
2022/03/14 09:25:39;;;;;;;9.35;2.20;;;33.00;21.00;;;;;;5014872;28;20034;-73
2022/03/14 09:28:05;;;;;;;9.85;2.63;;;33.20;20.30;;;;;;5014778;28;20036;-73
2022/03/14 09:30:30;;;;;;;8.32;2.22;;;33.40;19.90;;;;;;5014920;28;20065;-72
2022/03/14 09:32:56;;;;;;;7.25;2.58;;;33.60;20.10;;;;;;5016869;28;20036;-73
2022/03/14 09:35:24;;;;;;;6.65;2.47;;;33.80;19.80;;;;;;5018335;28;20507;-73
2022/03/14 09:37:50;;;;;;;7.93;2.20;;;33.90;19.80;;;;;;5027272;28;20484;-73
2022/03/14 09:40:19;;;;;;;6.90;2.00;;;34.10;19.50;;;;;;5015473;28;20084;-73
2022/03/14 09:42:48;;;;;;;5.63;1.92;;;34.10;19.20;;;;;;5015031;28;20029;-74
2022/03/14 09:45:14;;;;;;;7.60;2.10;;;34.30;19.50;;;;;;5020120;28;20038;-74
2022/03/14 09:47:44;;;;;;;7.55;2.33;;;34.30;19.00;;;;;;5014499;28;20392;-73
2022/03/14 09:50:20;;;;;;;8.10;2.40;;;34.50;18.30;;;;;;5010902;28;20029;-73
2022/03/14 09:52:48;;;;;;;7.88;1.90;;;34.40;18.10;;;;;;5025419;28;20029;-73
2022/03/14 09:55:13;;;;;;;7.28;2.20;;;34.30;18.20;;;;;;5010837;28;20060;-73
2022/03/14 09:57:40;;;;;;;7.22;2.30;;;34.40;18.20;;;;;;5014539;28;20509;-73
2022/03/14 10:00:13;;;;;;;8.65;2.10;;;34.10;18.10;;;;;;5018676;28;20021;-73
2022/03/14 10:02:39;;;;;;;6.57;1.80;;;34.20;18.10;;;;;;5026021;28;20044;-73
2022/03/14 10:05:08;;;;;;;9.48;2.20;;;34.20;18.10;;;;;;5042227;28;20053;-73
2022/03/14 10:07:36;;;;;;;6.55;2.10;;;34.20;17.80;;;;;;5014522;28;20046;-73
2022/03/14 10:10:06;;;;;;;7.32;2.05;;;34.20;17.50;;;;;;5014523;28;20108;-73
2022/03/14 10:12:32;;;;;;;;;;;34.50;17.90;;;;;;5014860;28;20049;-73
2022/03/14 10:15:05;;;;;;;8.63;2.08;;;34.60;17.60;;;;;;5021220;28;20368;-73
2022/03/14 10:17:32;;;;;;;8.65;2.20;;;34.40;17.90;;;;;;5012855;28;20473;-73
2022/03/14 10:20:02;;;;;;;5.97;1.80;;;33.90;18.70;;;;;;5011653;28;20116;-73
2022/03/14 10:22:39;;;;;;;8.30;2.03;;;33.90;18.10;;;;;;5014527;28;20041;-73
2022/03/14 10:25:09;;;;;;;7.00;1.80;;;33.60;18.00;;;;;;5014333;28;20033;-74
2022/03/14 10:27:37;;;;;;;5.75;1.67;;;33.90;17.60;;;;;;5015659;28;20026;-74
2022/03/14 10:30:06;;;;;;;6.88;2.00;;;33.90;17.50;;;;;;5013875;28;20025;-74
2022/03/14 10:32:34;;;;;;;5.78;1.90;;;34.10;17.00;;;;;;5012870;28;20030;-74
2022/03/14 10:35:05;;;;;;;5.35;1.83;;;34.20;16.80;;;;;;5011183;28;20092;-73
2022/03/14 10:37:34;;;;;;;14.40;2.10;;;34.40;16.90;;;;;;5014124;28;20025;-73
2022/03/14 10:40:10;;;;;;;7.00;2.00;;;34.10;17.10;;;;;;5013920;28;20112;-73
2022/03/14 10:42:41;;;;;;;7.22;1.88;;;33.00;18.20;;;;;;5014025;28;20500;-73
2022/03/14 10:45:13;;;;;;;7.88;2.00;;;31.60;18.80;;;;;;5020761;28;20601;-73
2022/03/14 10:47:54;;;;;;;6.80;2.08;;;31.30;18.90;;;;;;5013697;28;20028;-73
2022/03/14 10:50:37;;;;;;;8.88;2.03;;;31.80;19.10;;;;;;5023221;28;20022;-73
2022/03/14 10:53:05;;;;;;;7.55;2.10;;;32.90;18.70;;;;;;5010541;28;25637;-73
2022/03/14 10:55:39;;;;;;;7.63;2.30;;;33.50;17.70;;;;;;5013893;28;20041;-74
2022/03/14 10:58:14;;;;;;;7.70;2.03;;;33.90;17.30;;;;;;5013642;28;20030;-74
2022/03/14 11:00:47;;;;;;;6.65;2.38;;;34.20;16.80;;;;;;5021080;28;20412;-74
2022/03/14 11:03:21;;;;;;;7.43;2.15;;;34.30;16.50;;;;;;5021168;28;20468;-73
2022/03/14 11:05:47;;;;;;;14.40;2.60;;;34.70;16.50;;;;;;5013870;28;20388;-74
2022/03/14 11:08:32;;;;;;;10.35;2.13;;;34.60;16.40;;;;;;5009922;28;20033;-73
2022/03/14 11:11:03;;;;;;;6.20;1.90;;;34.40;16.00;;;;;;5011151;28;20050;-73
2022/03/14 11:13:29;;;;;;;9.30;2.25;;;34.20;15.80;;;;;;5019406;28;20124;-73
2022/03/14 11:15:56;;;;;;;6.18;2.03;;;33.90;16.50;;;;;;5014773;28;20584;-73
2022/03/14 11:18:24;;;;;;;8.35;2.20;;;34.20;16.70;;;;;;5013875;28;20030;-73
2022/03/14 11:20:51;;;;;;;6.55;2.17;;;34.40;16.10;;;;;;5014932;28;20119;-73
2022/03/14 11:23:18;;;;;;;10.00;2.40;;;34.20;16.40;;;;;;5010660;28;20028;-73
2022/03/14 11:25:44;;;;;;;6.88;2.00;;;33.90;16.60;;;;;;5017196;28;20033;-73
2022/03/14 11:28:20;;;;;;;7.53;2.60;;;33.80;16.50;;;;;;5014996;28;20508;-73
2022/03/14 11:31:00;;;;;;;6.45;1.90;;;33.70;16.60;;;;;;5013613;28;20500;-74
2022/03/14 11:33:27;;;;;;;;;;;34.00;16.60;;;;;;5013915;28;20111;-73
2022/03/14 11:35:53;;;;;;;7.63;2.20;;;33.90;16.40;;;;;;5021029;28;19983;-73
2022/03/14 11:38:19;;;;;;;7.75;1.88;;;34.10;15.90;;;;;;5009710;28;20504;-73
2022/03/14 11:40:46;;;;;;;8.18;2.00;;;33.80;16.00;;;;;;5011662;28;20061;-73
2022/03/14 11:43:12;;;;;;;7.38;2.17;;;33.10;16.60;;;;;;5019220;28;20030;-73
2022/03/14 11:45:38;;;;;;;7.38;1.95;;;32.90;16.90;;;;;;5022076;28;20040;-73
2022/03/14 11:48:05;;;;;;;9.20;2.35;;;32.90;17.10;;;;;;5021507;28;20022;-74
2022/03/14 11:50:57;;;;;;;7.10;1.90;;;32.70;17.00;;;;;;5012858;28;20026;-73
2022/03/14 11:53:26;;;;;;;8.60;1.90;;;32.70;16.60;;;;;;5014319;28;20033;-73
2022/03/14 11:55:55;;;;;;;8.40;2.00;;;32.90;16.90;;;;;;5014327;28;20033;-73
2022/03/14 11:58:39;;;;;;;7.05;1.92;;;33.20;17.10;;;;;;5015438;28;20508;-74
2022/03/14 12:01:21;;;;;;;7.07;1.85;;;33.80;16.30;;;;;;5016637;28;20042;-73
2022/03/14 12:03:49;;;;;;;6.43;1.90;;;34.10;16.30;;;;;;5016691;28;20058;-73
2022/03/14 12:06:15;;;;;;;7.57;1.80;;;34.10;15.80;;;;;;5016760;28;20504;-73
2022/03/14 12:08:44;;;;;;;8.10;1.90;;;33.80;16.20;;;;;;5014483;28;20589;-73
2022/03/14 12:11:28;;;;;;;7.55;1.67;;;33.80;16.20;;;;;;5012531;28;20026;-73
2022/03/14 12:13:54;;;;;;;9.30;2.15;;;33.40;16.10;;;;;;5028156;28;20104;-73
2022/03/14 12:16:44;;;;;;;6.80;2.08;;;33.10;16.80;;;;;;5017261;28;20441;-73
2022/03/14 12:19:28;;;;;;;8.20;1.98;;;33.30;16.40;;;;;;5017022;28;20108;-74
2022/03/14 12:21:54;;;;;;;6.43;2.03;;;33.30;17.20;;;;;;5016347;28;20061;-73
2022/03/14 12:24:42;;;;;;;7.15;1.95;;;33.80;16.80;;;;;;5016218;28;20121;-73
2022/03/14 12:27:19;;;;;;;7.10;1.83;;;33.50;16.80;;;;;;5018017;28;20026;-73
2022/03/14 12:29:47;;;;;;;5.97;2.00;;;33.00;17.60;;;;;;5016276;28;20037;-74
2022/03/14 12:32:31;;;;;;;6.47;1.80;;;33.20;16.90;;;;;;5011897;28;20026;-73
2022/03/14 12:34:59;;;;;;;6.72;1.73;;;33.80;16.20;;;;;;5012235;28;20429;-73
2022/03/14 12:37:50;;;;;;;7.55;1.83;;;34.50;16.30;;;;;;5016475;28;20501;-73
2022/03/14 12:40:21;;;;;;;6.47;1.80;;;34.80;15.80;;;;;;5025559;28;20048;-73
2022/03/14 12:42:54;;;;;;;5.95;1.70;;;34.20;15.80;;;;;;5018659;28;20084;-73
2022/03/14 12:45:20;;;;;;;6.30;1.90;;;33.30;16.30;;;;;;5017436;28;20077;-73
2022/03/14 12:47:57;;;;;;;9.20;2.00;;;32.60;16.70;;;;;;5016026;28;20021;-73